Time;durP1;ratioP1;P1;durP2;ratioP2;P2;SDS_P1;SDS_P2;PMS_P1;PMS_P2;Temp;Humidity;BMP_temperature;BMP_pressure;BME280_temperature;BME280_humidity;BME280_pressure;Samples;Min_cycle;Max_cycle;Signal;HPM_P1;HPM_P2
2023/09/22 00:01:46;;;;;;;9.50;6.80;;;16.20;96.10;;;;;;5060772;28;20104;-84
2023/09/22 00:04:12;;;;;;;8.43;6.32;;;16.20;96.10;;;;;;5031272;28;20128;-83
2023/09/22 00:06:38;;;;;;;7.82;5.68;;;16.10;96.10;;;;;;5034172;28;20025;-84
2023/09/22 00:09:08;;;;;;;8.73;6.05;;;16.10;96.10;;;;;;5033032;28;20029;-83
2023/09/22 00:11:35;;;;;;;10.90;5.60;;;16.10;96.20;;;;;;5063837;28;20029;-84
2023/09/22 00:14:01;;;;;;;8.20;5.75;;;16.20;96.20;;;;;;5029798;28;20387;-83
2023/09/22 00:16:27;;;;;;;8.43;5.75;;;16.10;96.10;;;;;;5035663;28;20021;-83
2023/09/22 00:18:52;;;;;;;7.20;5.32;;;16.20;96.10;;;;;;5061624;28;20029;-84
2023/09/22 00:21:19;;;;;;;9.20;6.72;;;16.20;96.10;;;;;;5030709;28;20033;-84
2023/09/22 00:23:44;;;;;;;8.35;6.20;;;16.10;96.00;;;;;;5033206;28;20094;-84
2023/09/22 00:26:10;;;;;;;7.28;5.20;;;16.10;96.00;;;;;;5036158;28;20033;-84
2023/09/22 00:28:36;;;;;;;7.65;5.68;;;16.10;96.00;;;;;;5033831;28;20025;-85
2023/09/22 00:31:01;;;;;;;9.07;6.18;;;16.10;96.00;;;;;;5032420;28;20021;-83
2023/09/22 00:33:27;;;;;;;7.60;5.72;;;16.10;95.90;;;;;;5029438;28;20052;-84
2023/09/22 00:35:53;;;;;;;8.23;5.82;;;16.10;95.90;;;;;;5030265;28;20075;-83
2023/09/22 00:38:18;;;;;;;10.57;6.45;;;16.00;95.90;;;;;;5030504;28;20412;-84
2023/09/22 00:40:44;;;;;;;9.88;6.50;;;16.00;95.90;;;;;;5030214;28;20053;-84
2023/09/22 00:43:11;;;;;;;10.75;8.25;;;16.00;95.90;;;;;;5062784;28;20033;-84
2023/09/22 00:45:50;;;;;;;10.45;7.40;;;16.00;95.90;;;;;;5028382;28;20021;-84
2023/09/22 00:48:26;;;;;;;10.63;7.15;;;16.00;95.90;;;;;;5063410;28;20460;-83
2023/09/22 00:50:53;;;;;;;13.65;8.00;;;16.00;95.90;;;;;;5031724;28;20025;-83
2023/09/22 00:53:19;;;;;;;13.45;9.00;;;16.00;95.90;;;;;;5029541;28;20124;-83
2023/09/22 00:55:50;;;;;;;13.07;8.98;;;15.90;95.80;;;;;;5030480;28;20032;-83
2023/09/22 00:58:16;;;;;;;12.57;8.27;;;16.00;96.00;;;;;;5062978;28;20068;-84
2023/09/22 01:00:47;;;;;;;13.65;9.48;;;16.00;95.90;;;;;;5032511;28;20068;-83
2023/09/22 01:03:13;;;;;;;14.80;9.32;;;16.00;95.90;;;;;;5032287;28;20106;-84
2023/09/22 01:05:39;;;;;;;13.07;9.13;;;15.90;95.90;;;;;;5031339;28;20071;-84
2023/09/22 01:08:05;;;;;;;15.45;9.82;;;15.90;95.90;;;;;;5033588;28;20097;-85
2023/09/22 01:10:36;;;;;;;16.60;10.15;;;16.00;95.90;;;;;;5029764;28;20026;-84
2023/09/22 01:13:02;;;;;;;13.98;9.77;;;15.90;95.90;;;;;;5060094;28;20018;-86
2023/09/22 01:15:27;;;;;;;14.25;9.18;;;15.90;95.80;;;;;;5060184;28;20093;-85
2023/09/22 01:17:53;;;;;;;17.40;10.40;;;15.90;95.80;;;;;;5030063;28;20076;-87
2023/09/22 01:20:19;;;;;;;21.63;13.90;;;15.90;95.80;;;;;;5030954;28;20032;-85
2023/09/22 01:22:45;;;;;;;17.27;10.60;;;15.80;95.80;;;;;;5030850;28;20028;-86
2023/09/22 01:25:11;;;;;;;13.57;8.63;;;15.80;95.80;;;;;;5029207;28;20029;-85
2023/09/22 01:27:36;;;;;;;15.50;10.23;;;15.80;95.80;;;;;;5031056;28;20060;-87
2023/09/22 01:30:05;;;;;;;15.63;9.73;;;15.80;95.80;;;;;;5032937;28;20156;-86
2023/09/22 01:32:31;;;;;;;19.10;12.05;;;15.70;95.70;;;;;;5062592;28;20400;-86
2023/09/22 01:34:58;;;;;;;15.63;9.93;;;15.70;95.70;;;;;;5028475;28;20018;-85
2023/09/22 01:37:28;;;;;;;14.80;8.95;;;15.60;95.70;;;;;;5032433;28;20060;-85
2023/09/22 01:39:57;;;;;;;13.48;8.95;;;15.60;95.70;;;;;;5063179;28;20017;-86
2023/09/22 01:42:23;;;;;;;16.50;10.02;;;15.60;95.70;;;;;;5030563;28;20037;-87
2023/09/22 01:44:49;;;;;;;15.45;9.63;;;15.60;95.60;;;;;;5027580;28;20563;-86
2023/09/22 01:47:14;;;;;;;15.65;8.77;;;15.50;95.50;;;;;;5031243;28;20112;-87
2023/09/22 01:49:40;;;;;;;14.82;8.95;;;15.50;95.40;;;;;;5035492;28;20028;-87
2023/09/22 01:52:06;;;;;;;13.23;7.90;;;15.50;95.40;;;;;;5031134;28;20030;-87
2023/09/22 01:54:31;;;;;;;11.85;7.90;;;15.50;95.40;;;;;;5028670;28;20021;-86
2023/09/22 01:56:57;;;;;;;14.50;9.07;;;15.50;95.50;;;;;;5028051;28;20172;-87
2023/09/22 01:59:23;;;;;;;13.80;8.48;;;15.50;95.80;;;;;;5042837;28;20022;-88
2023/09/22 02:01:48;;;;;;;16.08;9.63;;;15.40;95.20;;;;;;5028090;28;20383;-86
2023/09/22 02:04:14;;;;;;;18.08;9.68;;;15.40;95.30;;;;;;5029159;28;20025;-86
2023/09/22 02:06:39;;;;;;;15.90;8.95;;;15.30;95.20;;;;;;5061221;28;20053;-87
2023/09/22 02:09:05;;;;;;;13.82;8.82;;;15.30;95.30;;;;;;5030844;28;20022;-86
2023/09/22 02:11:31;;;;;;;14.43;9.02;;;15.30;95.20;;;;;;5028859;28;20025;-86
2023/09/22 02:13:57;;;;;;;13.90;9.55;;;15.30;95.20;;;;;;5057283;28;20037;-86
2023/09/22 02:16:22;;;;;;;14.88;9.60;;;15.20;95.20;;;;;;5028465;28;20030;-86
2023/09/22 02:18:48;;;;;;;18.08;10.32;;;15.20;95.20;;;;;;5058442;28;20119;-85
2023/09/22 02:21:17;;;;;;;12.95;8.05;;;15.20;95.20;;;;;;5030318;28;20037;-86
2023/09/22 02:23:42;;;;;;;13.52;8.32;;;15.20;95.30;;;;;;5028491;28;20068;-85
2023/09/22 02:26:08;;;;;;;11.75;7.07;;;15.10;95.30;;;;;;5027949;28;20159;-85
2023/09/22 02:28:35;;;;;;;11.68;7.15;;;15.10;95.30;;;;;;5033002;28;20029;-87
2023/09/22 02:31:01;;;;;;;9.77;6.57;;;15.10;95.30;;;;;;5032100;28;20030;-87
2023/09/22 02:33:26;;;;;;;12.32;7.55;;;15.10;95.40;;;;;;5029770;28;20021;-86
2023/09/22 02:35:52;;;;;;;11.40;7.00;;;15.10;95.30;;;;;;5028307;28;20037;-86
2023/09/22 02:38:17;;;;;;;13.95;8.77;;;15.00;95.30;;;;;;5028415;28;20036;-87
2023/09/22 02:40:45;;;;;;;12.65;7.40;;;15.00;95.20;;;;;;5061144;28;20101;-87
2023/09/22 02:43:10;;;;;;;12.23;7.03;;;14.90;95.30;;;;;;5027956;28;20033;-87
2023/09/22 02:45:40;;;;;;;10.20;6.72;;;14.90;95.30;;;;;;5028088;28;20097;-87
2023/09/22 02:48:06;;;;;;;10.18;6.35;;;14.90;95.30;;;;;;5058799;28;20044;-87
2023/09/22 02:50:33;;;;;;;11.68;7.03;;;14.90;95.60;;;;;;5031580;28;20499;-87
2023/09/22 02:52:59;;;;;;;12.57;7.45;;;14.90;95.30;;;;;;5026801;28;20037;-86
2023/09/22 02:55:24;;;;;;;12.50;7.32;;;14.80;95.60;;;;;;5030004;28;20022;-87
2023/09/22 02:57:50;;;;;;;10.48;5.70;;;14.80;95.30;;;;;;5028924;28;20037;-87
2023/09/22 03:00:20;;;;;;;10.18;6.07;;;14.80;95.40;;;;;;5029390;28;20065;-87
2023/09/22 03:02:46;;;;;;;9.05;5.85;;;14.80;95.40;;;;;;5028986;28;20029;-87
2023/09/22 03:05:15;;;;;;;10.38;5.97;;;14.80;95.40;;;;;;5059893;28;20121;-87
2023/09/22 03:07:41;;;;;;;8.98;5.90;;;14.80;95.30;;;;;;5031396;28;20075;-87
2023/09/22 03:10:07;;;;;;;10.95;5.75;;;14.80;95.40;;;;;;5030295;28;20036;-87
2023/09/22 03:12:34;;;;;;;8.60;5.75;;;14.80;95.30;;;;;;5030394;28;20104;-87
2023/09/22 03:14:59;;;;;;;9.68;5.75;;;14.80;95.30;;;;;;5027676;28;20125;-87
2023/09/22 03:17:25;;;;;;;7.35;4.68;;;14.70;95.30;;;;;;5031354;28;20604;-87
2023/09/22 03:19:51;;;;;;;8.88;4.78;;;14.80;95.30;;;;;;5026233;28;20029;-88
2023/09/22 03:22:17;;;;;;;10.23;5.85;;;14.80;95.30;;;;;;5060562;28;20480;-86
2023/09/22 03:24:42;;;;;;;10.63;5.55;;;14.80;95.20;;;;;;5057870;28;20025;-86
2023/09/22 03:27:08;;;;;;;14.48;7.75;;;14.80;95.30;;;;;;5028530;28;20021;-87
2023/09/22 03:29:34;;;;;;;9.95;5.93;;;14.80;95.20;;;;;;5028442;28;20123;-86
2023/09/22 03:31:59;;;;;;;10.40;5.95;;;14.80;95.20;;;;;;5058412;28;20013;-86
2023/09/22 03:34:25;;;;;;;8.40;4.95;;;14.80;95.30;;;;;;5027463;28;20669;-88
2023/09/22 03:36:52;;;;;;;9.20;5.10;;;14.80;95.30;;;;;;5033583;28;20036;-87
2023/09/22 03:39:21;;;;;;;8.20;4.80;;;14.80;95.30;;;;;;5033364;28;20034;-87
2023/09/22 03:41:52;;;;;;;8.02;4.85;;;14.80;95.30;;;;;;5031375;28;20021;-87
2023/09/22 03:44:18;;;;;;;7.80;4.53;;;14.90;95.20;;;;;;5032272;28;20033;-86
2023/09/22 03:46:43;;;;;;;7.70;4.30;;;14.90;95.20;;;;;;5034225;28;20025;-86
2023/09/22 03:49:09;;;;;;;8.65;4.82;;;14.90;95.20;;;;;;5062748;28;20083;-86
2023/09/22 03:51:34;;;;;;;9.13;4.72;;;14.90;95.10;;;;;;5034913;28;20021;-87
2023/09/22 03:54:00;;;;;;;9.65;5.00;;;14.90;95.10;;;;;;5031923;28;20507;-86
2023/09/22 03:56:26;;;;;;;7.07;4.30;;;14.90;95.10;;;;;;5036565;28;20029;-86
2023/09/22 03:58:51;;;;;;;10.60;5.57;;;14.90;95.10;;;;;;5062691;28;20124;-86
2023/09/22 04:01:17;;;;;;;8.18;4.82;;;14.90;95.10;;;;;;5031362;28;20022;-87
2023/09/22 04:03:43;;;;;;;8.63;4.50;;;14.90;95.10;;;;;;5031574;28;20030;-87
2023/09/22 04:06:09;;;;;;;11.32;6.00;;;14.80;95.00;;;;;;5046915;28;20017;-86
2023/09/22 04:08:35;;;;;;;8.02;4.72;;;14.70;95.10;;;;;;5031082;28;20079;-86
2023/09/22 04:11:03;;;;;;;8.23;5.10;;;14.70;95.30;;;;;;5030368;28;20025;-86
2023/09/22 04:13:29;;;;;;;9.82;5.15;;;14.60;95.30;;;;;;5033190;28;20018;-85
2023/09/22 04:16:02;;;;;;;8.43;4.80;;;14.60;95.40;;;;;;5040142;28;20080;-86
2023/09/22 04:18:29;;;;;;;7.30;4.78;;;14.60;95.50;;;;;;5061642;28;20022;-86
2023/09/22 04:21:04;;;;;;;10.15;5.68;;;14.60;95.50;;;;;;5031468;28;20027;-86
2023/09/22 04:23:29;;;;;;;8.27;4.97;;;14.60;95.50;;;;;;5033333;28;20063;-85
2023/09/22 04:25:59;;;;;;;9.40;5.00;;;14.60;95.50;;;;;;5031497;28;20504;-86
2023/09/22 04:28:25;;;;;;;8.95;5.45;;;14.60;95.60;;;;;;5033103;28;20044;-87
2023/09/22 04:30:51;;;;;;;12.65;6.47;;;14.60;95.60;;;;;;5028498;28;20024;-87
2023/09/22 04:33:17;;;;;;;7.93;5.18;;;14.60;95.50;;;;;;5027906;28;20040;-87
2023/09/22 04:35:43;;;;;;;8.50;5.15;;;14.70;95.40;;;;;;5031444;28;20017;-87
2023/09/22 04:38:10;;;;;;;9.43;4.90;;;14.70;95.40;;;;;;5032335;28;20048;-87
2023/09/22 04:40:38;;;;;;;9.40;5.65;;;14.80;95.40;;;;;;5032852;28;20021;-86
2023/09/22 04:43:07;;;;;;;9.50;5.50;;;14.80;95.30;;;;;;5029307;28;20034;-86
2023/09/22 04:45:40;;;;;;;9.88;5.68;;;14.80;95.30;;;;;;5031222;28;20100;-87
2023/09/22 04:48:10;;;;;;;8.88;5.07;;;14.80;95.30;;;;;;5061831;28;20075;-87
2023/09/22 04:50:36;;;;;;;8.10;5.38;;;14.80;95.30;;;;;;5059468;28;20117;-86
2023/09/22 04:53:02;;;;;;;9.15;5.43;;;14.80;95.30;;;;;;5028739;28;20034;-87
2023/09/22 04:55:34;;;;;;;9.50;5.15;;;14.80;95.20;;;;;;5030993;28;20049;-86
2023/09/22 04:58:01;;;;;;;9.38;5.78;;;14.80;95.20;;;;;;5033627;28;20045;-86
2023/09/22 05:00:27;;;;;;;7.93;5.05;;;14.90;95.20;;;;;;5029590;28;20396;-86
2023/09/22 05:02:53;;;;;;;10.85;5.88;;;14.80;95.20;;;;;;5028927;28;20124;-86
2023/09/22 05:05:19;;;;;;;7.85;4.60;;;14.90;95.20;;;;;;5032820;28;20029;-86
2023/09/22 05:07:49;;;;;;;10.13;4.68;;;14.90;95.10;;;;;;5029971;28;20026;-85
2023/09/22 05:10:14;;;;;;;6.15;3.88;;;14.90;95.10;;;;;;5029370;28;20025;-86
2023/09/22 05:12:40;;;;;;;8.80;4.72;;;14.90;95.10;;;;;;5033736;28;20083;-86
2023/09/22 05:15:06;;;;;;;8.68;4.50;;;14.90;95.10;;;;;;5034934;28;20022;-86
2023/09/22 05:17:34;;;;;;;6.05;4.00;;;14.90;95.10;;;;;;5029008;28;20039;-86
2023/09/22 05:20:00;;;;;;;6.75;4.00;;;14.90;95.10;;;;;;5032153;28;20022;-85
2023/09/22 05:22:25;;;;;;;6.60;4.28;;;15.00;95.10;;;;;;5029396;28;20021;-85
2023/09/22 05:24:51;;;;;;;6.30;3.80;;;15.00;95.10;;;;;;5028044;28;20040;-87
2023/09/22 05:27:17;;;;;;;8.27;4.50;;;15.00;95.10;;;;;;5029801;28;20037;-85
2023/09/22 05:29:43;;;;;;;6.35;3.80;;;15.00;95.00;;;;;;5061561;28;20392;-86
2023/09/22 05:32:09;;;;;;;7.95;4.03;;;15.00;95.00;;;;;;5029970;28;20131;-85
2023/09/22 05:34:35;;;;;;;9.20;5.18;;;15.00;95.00;;;;;;5059584;28;20025;-84
2023/09/22 05:37:01;;;;;;;6.72;3.78;;;15.00;95.00;;;;;;5030669;28;20476;-85
2023/09/22 05:39:27;;;;;;;5.47;3.72;;;15.00;95.00;;;;;;5029604;28;20028;-85
2023/09/22 05:41:52;;;;;;;8.18;3.90;;;15.10;95.10;;;;;;5032072;28;20395;-85
2023/09/22 05:44:18;;;;;;;7.18;3.97;;;15.10;95.00;;;;;;5027453;28;20045;-84
2023/09/22 05:46:44;;;;;;;7.45;4.18;;;15.00;95.00;;;;;;5033461;28;20018;-86
2023/09/22 05:49:14;;;;;;;7.25;4.45;;;15.00;95.00;;;;;;5037403;28;21220;-85
2023/09/22 05:51:40;;;;;;;5.97;3.70;;;15.00;95.00;;;;;;5032972;28;20017;-85
2023/09/22 05:54:07;;;;;;;7.05;3.50;;;15.00;95.00;;;;;;5032610;28;20061;-85
2023/09/22 05:56:33;;;;;;;5.43;3.25;;;15.00;95.00;;;;;;5035143;28;20032;-85
2023/09/22 05:58:58;;;;;;;5.05;3.13;;;15.00;95.00;;;;;;5029087;28;20033;-85
2023/09/22 06:01:24;;;;;;;7.32;3.28;;;15.00;95.10;;;;;;5024391;28;20502;-85
2023/09/22 06:03:50;;;;;;;5.03;3.45;;;15.00;95.10;;;;;;5033137;28;20084;-85
2023/09/22 06:06:16;;;;;;;6.40;3.17;;;15.00;95.10;;;;;;5033196;28;20127;-84
2023/09/22 06:08:46;;;;;;;5.35;3.00;;;15.00;95.10;;;;;;5032188;28;20026;-85
2023/09/22 06:11:13;;;;;;;7.60;4.22;;;15.00;95.10;;;;;;5033435;28;20017;-86
2023/09/22 06:13:39;;;;;;;6.13;3.10;;;15.00;95.00;;;;;;5036874;28;20432;-85
2023/09/22 06:16:05;;;;;;;6.97;3.45;;;15.00;94.90;;;;;;5033421;28;20460;-86
2023/09/22 06:18:31;;;;;;;6.43;3.35;;;14.90;95.00;;;;;;5033589;28;20041;-86
2023/09/22 06:20:59;;;;;;;7.15;3.92;;;14.80;95.00;;;;;;5036387;28;20062;-86
2023/09/22 06:23:26;;;;;;;4.80;3.15;;;14.90;95.00;;;;;;5028165;28;20571;-86
2023/09/22 06:25:54;;;;;;;5.45;3.38;;;14.90;94.90;;;;;;5044778;28;20021;-85
2023/09/22 06:28:20;;;;;;;6.35;3.40;;;15.00;94.90;;;;;;5030707;28;20029;-85
2023/09/22 06:30:49;;;;;;;5.75;3.28;;;14.90;94.80;;;;;;5032148;28;20030;-84
2023/09/22 06:33:16;;;;;;;5.18;3.10;;;14.90;94.80;;;;;;5057885;28;20092;-84
2023/09/22 06:35:43;;;;;;;4.57;3.30;;;15.00;94.90;;;;;;5025049;28;20375;-85
2023/09/22 06:38:10;;;;;;;6.72;3.85;;;15.00;94.80;;;;;;5032283;28;20038;-84
2023/09/22 06:40:36;;;;;;;8.90;3.38;;;15.00;94.60;;;;;;5030037;28;20128;-84
2023/09/22 06:43:04;;;;;;;5.82;2.80;;;14.90;94.50;;;;;;5032760;28;20064;-84
2023/09/22 06:45:32;;;;;;;4.03;2.70;;;14.90;94.60;;;;;;5058890;28;20121;-85
2023/09/22 06:47:59;;;;;;;7.95;2.80;;;15.00;94.70;;;;;;5025500;28;20026;-86
2023/09/22 06:50:30;;;;;;;5.22;2.40;;;15.10;94.70;;;;;;5024011;28;20439;-84
2023/09/22 06:52:58;;;;;;;3.83;2.50;;;15.20;94.60;;;;;;5026359;28;20030;-88
2023/09/22 06:55:24;;;;;;;2.72;2.10;;;15.40;94.50;;;;;;5025758;28;20434;-89
2023/09/22 06:57:49;;;;;;;3.55;2.55;;;15.40;94.40;;;;;;5024938;28;20036;-90
2023/09/22 07:00:17;;;;;;;5.25;2.28;;;15.50;94.10;;;;;;5021890;28;20668;-89
2023/09/22 07:02:46;;;;;;;5.25;2.53;;;15.60;94.10;;;;;;5026941;28;20374;-90
2023/09/22 07:05:12;;;;;;;3.50;2.00;;;15.60;93.90;;;;;;5025262;28;20057;-90
2023/09/22 07:07:38;;;;;;;5.65;2.83;;;15.60;93.80;;;;;;5027933;28;20021;-90
2023/09/22 07:10:11;;;;;;;5.40;2.42;;;15.70;93.60;;;;;;5033369;28;20037;-90
2023/09/22 07:12:38;;;;;;;3.00;2.00;;;15.70;93.50;;;;;;5025279;28;20033;-90
2023/09/22 07:15:06;;;;;;;3.55;2.10;;;15.70;93.40;;;;;;5026024;28;20026;-90
2023/09/22 07:17:31;;;;;;;4.75;2.28;;;15.70;93.30;;;;;;5031305;28;20128;-90
2023/09/22 07:20:01;;;;;;;4.38;1.98;;;15.80;93.30;;;;;;5027526;28;20116;-90
2023/09/22 07:22:30;;;;;;;5.97;2.40;;;15.70;93.10;;;;;;5024728;28;20029;-89
2023/09/22 07:24:56;;;;;;;3.20;2.22;;;15.70;93.20;;;;;;5026392;28;20053;-89
2023/09/22 07:27:23;;;;;;;2.83;2.00;;;15.70;93.20;;;;;;5029722;28;20060;-90
2023/09/22 07:29:50;;;;;;;5.82;2.65;;;15.70;93.20;;;;;;5026347;28;20056;-90
2023/09/22 07:32:16;;;;;;;4.63;2.20;;;15.70;93.10;;;;;;5027369;28;20057;-90
2023/09/22 07:34:42;;;;;;;5.45;2.30;;;15.70;93.20;;;;;;5041840;28;20023;-90
2023/09/22 07:37:11;;;;;;;3.10;2.10;;;15.80;93.20;;;;;;5028541;28;20078;-90
2023/09/22 07:39:37;;;;;;;3.53;1.73;;;15.80;93.10;;;;;;5027072;28;20050;-89
2023/09/22 07:42:03;;;;;;;4.05;2.20;;;15.80;93.00;;;;;;5026462;28;20045;-90
2023/09/22 07:44:29;;;;;;;3.20;1.67;;;16.00;93.00;;;;;;5022492;28;20267;-90
2023/09/22 07:46:58;;;;;;;2.50;1.70;;;16.10;92.80;;;;;;5023471;28;20052;-90
2023/09/22 07:49:23;;;;;;;3.80;2.17;;;16.30;92.80;;;;;;5026829;28;20567;-89
2023/09/22 07:51:49;;;;;;;2.83;1.88;;;16.40;92.50;;;;;;5024493;28;20027;-89
2023/09/22 07:54:14;;;;;;;1.90;1.52;;;16.50;92.30;;;;;;5031887;28;20025;-89
2023/09/22 07:56:40;;;;;;;2.85;1.60;;;16.60;92.20;;;;;;5023782;28;20047;-91
2023/09/22 07:59:05;;;;;;;3.88;1.70;;;16.60;91.90;;;;;;5029459;28;20044;-91
2023/09/22 08:01:31;;;;;;;2.70;1.90;;;16.60;91.80;;;;;;5026791;28;20028;-90
2023/09/22 08:03:57;;;;;;;2.63;1.70;;;16.60;91.40;;;;;;5041572;28;20551;-90
2023/09/22 08:06:23;;;;;;;2.35;1.75;;;16.50;91.10;;;;;;5035371;28;20431;-90
2023/09/22 08:08:49;;;;;;;4.47;1.90;;;16.50;90.90;;;;;;5036027;28;20151;-90
2023/09/22 08:11:17;;;;;;;3.25;1.80;;;16.50;90.80;;;;;;5030752;28;20040;-90
2023/09/22 08:13:43;;;;;;;3.00;1.60;;;16.40;90.50;;;;;;5025662;28;20045;-89
2023/09/22 08:16:10;;;;;;;2.92;1.83;;;16.40;90.50;;;;;;5025611;28;20029;-91
2023/09/22 08:18:37;;;;;;;1.98;1.50;;;16.40;90.50;;;;;;5028872;28;20087;-90
2023/09/22 08:21:07;;;;;;;2.80;1.40;;;16.40;90.50;;;;;;5030787;28;20013;-91
2023/09/22 08:23:33;;;;;;;3.65;1.80;;;16.50;90.50;;;;;;5038159;28;20033;-90
2023/09/22 08:26:01;;;;;;;2.58;1.33;;;16.50;90.60;;;;;;5039902;28;20013;-90
2023/09/22 08:28:28;;;;;;;2.85;1.35;;;16.50;90.50;;;;;;5041723;28;20029;-90
2023/09/22 08:30:56;;;;;;;2.65;1.60;;;16.50;90.30;;;;;;5046854;28;20534;-90
2023/09/22 08:33:23;;;;;;;1.45;1.30;;;16.60;90.00;;;;;;5031069;28;20395;-90
2023/09/22 08:35:49;;;;;;;4.03;1.60;;;16.70;90.10;;;;;;5038247;28;20121;-91
2023/09/22 08:38:15;;;;;;;3.47;1.50;;;16.80;88.90;;;;;;5041039;28;20059;-90
2023/09/22 08:40:40;;;;;;;2.38;1.48;;;16.70;87.70;;;;;;5033045;28;20480;-91
2023/09/22 08:43:08;;;;;;;2.17;1.27;;;16.70;88.40;;;;;;5034904;28;20172;-90
2023/09/22 08:45:35;;;;;;;2.38;1.23;;;16.60;88.40;;;;;;5035407;28;20108;-91
2023/09/22 08:48:01;;;;;;;2.13;1.23;;;16.70;88.50;;;;;;5044966;28;20028;-91
2023/09/22 08:50:27;;;;;;;1.83;1.00;;;16.80;88.70;;;;;;5043646;28;20022;-90
2023/09/22 08:52:52;;;;;;;2.10;1.00;;;16.90;88.60;;;;;;5046003;28;20036;-91
2023/09/22 08:55:20;;;;;;;2.60;1.00;;;17.00;88.70;;;;;;5053438;28;20025;-91
2023/09/22 08:57:47;;;;;;;1.15;0.80;;;17.10;88.60;;;;;;5040014;28;20033;-90
2023/09/22 09:00:26;;;;;;;1.05;0.90;;;17.30;88.20;;;;;;5045260;28;20021;-91
2023/09/22 09:02:58;;;;;;;1.55;1.10;;;17.30;88.10;;;;;;5044808;28;20037;-91
2023/09/22 09:05:28;;;;;;;;;;;17.30;87.30;;;;;;5044785;28;20049;-90
2023/09/22 09:07:55;;;;;;;1.77;1.00;;;17.30;87.10;;;;;;5033199;28;20264;-90
2023/09/22 09:10:34;;;;;;;1.13;0.88;;;17.20;86.60;;;;;;5041627;28;20038;-90
2023/09/22 09:13:01;;;;;;;2.08;0.98;;;17.20;86.00;;;;;;5037668;28;20037;-91
2023/09/22 09:15:29;;;;;;;1.05;0.80;;;17.10;85.50;;;;;;5049482;28;20017;-91
2023/09/22 09:18:08;;;;;;;1.30;0.70;;;17.10;85.40;;;;;;5048599;28;20045;-91
2023/09/22 09:20:40;;;;;;;1.73;0.90;;;17.10;85.50;;;;;;5049576;28;20131;-91
2023/09/22 09:23:24;;;;;;;;;;;17.10;85.50;;;;;;5035094;28;20479;-91
2023/09/22 09:25:55;;;;;;;2.60;1.00;;;17.30;85.00;;;;;;5034523;28;19913;-90
2023/09/22 09:28:22;;;;;;;1.65;0.98;;;17.30;84.60;;;;;;5037882;28;20100;-90
2023/09/22 09:30:54;;;;;;;1.48;0.80;;;17.40;84.40;;;;;;5044514;28;20025;-91
2023/09/22 09:33:21;;;;;;;3.45;1.15;;;17.50;84.00;;;;;;5043366;28;20526;-89
2023/09/22 09:35:47;;;;;;;2.63;1.20;;;17.60;82.90;;;;;;5037814;28;20017;-91
2023/09/22 09:38:13;;;;;;;2.50;0.95;;;17.50;81.30;;;;;;5048563;28;20043;-91
2023/09/22 09:40:39;;;;;;;0.90;0.70;;;17.50;81.60;;;;;;5050051;28;20021;-91
2023/09/22 09:43:12;;;;;;;0.68;0.60;;;17.50;81.80;;;;;;5050217;28;20031;-91
2023/09/22 09:45:43;;;;;;;1.17;0.90;;;17.70;82.30;;;;;;5033702;28;20025;-91
2023/09/22 09:48:14;;;;;;;1.70;1.02;;;17.80;82.30;;;;;;5031478;28;20069;-90
2023/09/22 09:50:41;;;;;;;1.92;1.10;;;17.70;82.10;;;;;;5031127;28;20045;-91
2023/09/22 09:53:15;;;;;;;1.58;0.80;;;17.60;82.20;;;;;;5022600;28;20033;-90
2023/09/22 09:55:43;;;;;;;1.50;0.93;;;17.50;82.50;;;;;;5033872;28;20013;-90
2023/09/22 09:58:11;;;;;;;1.08;0.77;;;17.50;82.00;;;;;;5028800;28;20040;-89
2023/09/22 10:00:38;;;;;;;1.77;0.77;;;17.60;82.30;;;;;;5027667;28;20034;-90
2023/09/22 10:03:06;;;;;;;2.17;1.00;;;17.70;82.40;;;;;;5031583;28;20033;-91
2023/09/22 10:05:33;;;;;;;2.58;1.10;;;17.70;81.20;;;;;;5035397;28;20020;-90
2023/09/22 10:07:59;;;;;;;1.58;1.02;;;17.70;81.20;;;;;;5033448;28;20068;-90
2023/09/22 10:10:27;;;;;;;1.98;0.93;;;17.70;81.00;;;;;;5033115;28;20021;-90
2023/09/22 10:12:52;;;;;;;2.00;0.98;;;17.70;80.30;;;;;;5031425;28;20041;-90
2023/09/22 10:15:57;;;;;;;3.15;1.00;;;17.80;80.50;;;;;;5031443;28;20052;-90
2023/09/22 10:18:52;;;;;;;0.82;0.60;;;17.90;79.10;;;;;;5030286;28;20040;-90
2023/09/22 10:21:30;;;;;;;2.28;0.90;;;18.00;79.40;;;;;;5029114;28;20083;-89
2023/09/22 10:24:24;;;;;;;1.10;0.80;;;18.10;78.30;;;;;;5029181;28;20083;-91
2023/09/22 10:26:55;;;;;;;1.92;0.90;;;18.10;78.70;;;;;;5030597;28;20044;-90
2023/09/22 10:29:33;;;;;;;0.73;0.70;;;18.10;78.60;;;;;;5031880;28;20129;-90
2023/09/22 10:34:51;;;;;;;1.40;0.68;;;18.00;78.80;;;;;;5028563;28;20038;-91
2023/09/22 10:37:20;;;;;;;1.40;0.90;;;18.20;78.80;;;;;;5024887;28;20041;-90
2023/09/22 10:40:16;;;;;;;1.35;0.63;;;18.30;78.80;;;;;;5025660;28;20021;-90
2023/09/22 10:42:51;;;;;;;1.40;0.88;;;18.40;78.90;;;;;;5029225;28;20056;-90
2023/09/22 10:45:23;;;;;;;1.42;0.80;;;18.50;78.50;;;;;;5026971;28;20079;-90
2023/09/22 10:47:51;;;;;;;0.60;0.55;;;18.50;78.40;;;;;;5028354;28;20487;-90
2023/09/22 10:50:21;;;;;;;1.52;0.73;;;18.40;78.50;;;;;;5029127;28;20026;-89
2023/09/22 10:53:03;;;;;;;2.33;0.70;;;18.30;78.10;;;;;;5032546;28;20384;-89
2023/09/22 10:55:40;;;;;;;0.98;0.80;;;18.20;78.30;;;;;;5029747;28;20030;-89
2023/09/22 10:58:11;;;;;;;1.65;0.80;;;18.20;78.40;;;;;;5028099;28;20450;-89
2023/09/22 11:00:40;;;;;;;1.65;0.90;;;18.00;78.20;;;;;;5034516;28;20044;-88
2023/09/22 11:03:13;;;;;;;0.98;0.70;;;17.90;78.40;;;;;;5061482;28;20044;-89
2023/09/22 11:05:41;;;;;;;1.17;0.63;;;17.90;77.90;;;;;;5058009;28;20037;-89
2023/09/22 11:08:14;;;;;;;2.50;0.88;;;17.80;78.20;;;;;;5029024;28;20025;-90
2023/09/22 11:10:43;;;;;;;1.55;0.90;;;17.80;77.60;;;;;;5029096;28;20629;-90
2023/09/22 11:13:08;;;;;;;0.60;0.60;;;17.80;77.60;;;;;;5030508;28;20546;-89
2023/09/22 11:15:44;;;;;;;1.20;0.80;;;17.90;77.70;;;;;;5059931;28;20036;-89
2023/09/22 11:18:21;;;;;;;0.70;0.60;;;17.90;77.50;;;;;;5027382;28;20037;-90
2023/09/22 11:20:48;;;;;;;0.88;0.55;;;18.00;77.50;;;;;;5025510;28;20029;-90
2023/09/22 11:23:15;;;;;;;0.70;0.63;;;18.20;77.60;;;;;;5026209;28;20356;-89
2023/09/22 11:25:40;;;;;;;1.15;0.80;;;18.20;77.30;;;;;;5059182;28;20633;-89
2023/09/22 11:28:06;;;;;;;2.00;0.55;;;18.30;77.00;;;;;;5028697;28;20100;-87
2023/09/22 11:30:33;;;;;;;1.20;0.70;;;18.30;76.80;;;;;;5028702;28;20480;-88
2023/09/22 11:32:59;;;;;;;0.98;0.70;;;18.50;76.20;;;;;;5022962;28;20040;-88
2023/09/22 11:35:39;;;;;;;1.05;0.70;;;18.60;75.30;;;;;;5026315;28;20025;-87
2023/09/22 11:38:43;;;;;;;0.60;0.50;;;18.80;75.50;;;;;;5024402;28;20071;-88
2023/09/22 11:41:15;;;;;;;0.80;0.65;;;18.90;74.40;;;;;;4967011;28;20038;-88
2023/09/22 11:43:43;;;;;;;1.67;0.80;;;19.00;74.60;;;;;;5019927;28;20041;-88
2023/09/22 11:46:15;;;;;;;0.93;0.60;;;19.00;73.40;;;;;;5019569;28;20829;-88
2023/09/22 11:49:13;;;;;;;1.70;0.70;;;19.00;73.50;;;;;;5029255;28;20148;-88
2023/09/22 11:51:55;;;;;;;1.88;0.68;;;19.20;73.10;;;;;;4991073;28;20042;-88
2023/09/22 11:54:24;;;;;;;2.03;0.70;;;19.30;72.30;;;;;;5023282;28;20430;-88
2023/09/22 11:56:56;;;;;;;1.63;0.60;;;19.30;71.10;;;;;;5023918;28;20018;-88
2023/09/22 11:59:34;;;;;;;1.25;0.70;;;19.50;70.60;;;;;;5027241;28;20076;-87
2023/09/22 12:02:00;;;;;;;1.70;0.70;;;19.50;70.50;;;;;;5030574;28;20112;-88
2023/09/22 12:04:27;;;;;;;1.02;0.60;;;19.70;70.60;;;;;;5031762;28;20025;-88
2023/09/22 12:06:53;;;;;;;2.28;0.70;;;19.80;70.00;;;;;;5032967;28;20021;-87
2023/09/22 12:09:20;;;;;;;1.02;0.70;;;19.80;69.70;;;;;;5026337;28;20010;-88
2023/09/22 12:11:46;;;;;;;0.70;0.55;;;19.70;69.30;;;;;;5027583;28;20161;-88
2023/09/22 12:14:12;;;;;;;1.45;0.60;;;19.70;69.90;;;;;;5028062;28;20095;-88
2023/09/22 12:16:41;;;;;;;1.02;0.60;;;19.60;70.20;;;;;;5030800;28;20273;-87
2023/09/22 12:19:06;;;;;;;1.13;0.68;;;19.60;70.60;;;;;;5028127;28;20048;-88
2023/09/22 12:21:35;;;;;;;4.18;0.80;;;19.70;70.60;;;;;;5027549;28;20034;-88
2023/09/22 12:24:00;;;;;;;0.93;0.65;;;19.70;70.50;;;;;;5030446;28;20384;-89
2023/09/22 12:26:27;;;;;;;1.10;0.80;;;19.80;69.60;;;;;;5029455;28;20026;-88
2023/09/22 12:28:52;;;;;;;0.85;0.75;;;19.70;69.20;;;;;;5029582;28;20033;-89
2023/09/22 12:31:18;;;;;;;3.42;0.57;;;19.70;69.30;;;;;;5030664;28;20017;-89
2023/09/22 12:33:45;;;;;;;1.10;0.70;;;19.80;69.60;;;;;;5027032;28;21171;-88
2023/09/22 12:36:15;;;;;;;2.15;0.80;;;19.90;69.40;;;;;;5033399;28;20029;-88
2023/09/22 12:38:44;;;;;;;0.77;0.50;;;19.90;69.60;;;;;;5028185;28;20048;-88
2023/09/22 12:41:11;;;;;;;1.35;0.70;;;19.80;69.30;;;;;;5030953;28;20021;-88
2023/09/22 12:43:37;;;;;;;1.55;0.70;;;19.70;69.40;;;;;;5032078;28;20549;-88
2023/09/22 12:46:11;;;;;;;0.90;0.60;;;19.60;69.40;;;;;;5032554;28;20018;-88
2023/09/22 12:48:40;;;;;;;0.77;0.50;;;19.60;69.80;;;;;;5045338;28;20099;-88
2023/09/22 12:51:11;;;;;;;0.80;0.50;;;19.60;69.80;;;;;;5030844;28;20029;-88
2023/09/22 12:53:37;;;;;;;0.50;0.50;;;19.50;69.90;;;;;;5027608;28;20182;-88